createdAt,value
2022-08-18T04:00:25.809Z,20.23
2022-08-18T04:05:25.757Z,20.39
2022-08-18T04:10:25.704Z,20.39
2022-08-18T04:15:32.750Z,20.14
2022-08-18T04:20:32.628Z,20.27
2022-08-18T04:25:29.512Z,20.24
2022-08-18T04:30:26.480Z,20.14
2022-08-18T04:35:25.433Z,20.14
2022-08-18T04:40:25.619Z,20.16
2022-08-18T04:45:25.321Z,20.25
2022-08-18T04:50:25.273Z,20.26
2022-08-18T04:55:25.205Z,20.39
2022-08-18T05:00:25.155Z,20.40
2022-08-18T05:05:25.108Z,20.43
2022-08-18T05:10:25.057Z,20.50
2022-08-18T05:15:25.004Z,20.53
2022-08-18T05:20:24.940Z,20.32
2022-08-18T05:25:24.888Z,20.34
2022-08-18T05:30:24.837Z,20.29
2022-08-18T05:35:24.783Z,20.31
2022-08-18T05:40:24.754Z,20.33
2022-08-18T05:45:24.672Z,20.34
2022-08-18T05:50:24.620Z,20.53
2022-08-18T05:55:24.563Z,20.65
2022-08-18T06:00:24.516Z,20.48
2022-08-18T06:05:24.451Z,20.59
2022-08-18T06:10:24.390Z,20.66
2022-08-18T06:15:24.347Z,20.69
2022-08-18T06:20:24.287Z,20.47
2022-08-18T06:25:24.234Z,20.66
2022-08-18T06:30:24.187Z,20.90
2022-08-18T06:35:24.130Z,21.04
2022-08-18T06:40:24.073Z,21.09
2022-08-18T06:45:24.019Z,21.17
2022-08-18T06:50:24.966Z,21.24
2022-08-18T06:55:23.908Z,21.28
2022-08-18T07:00:23.878Z,21.42
2022-08-18T07:05:23.802Z,21.49
2022-08-18T07:10:23.746Z,21.43
2022-08-18T07:15:23.691Z,21.64
2022-08-18T07:20:23.791Z,21.82
2022-08-18T07:25:23.584Z,21.95
2022-08-18T07:30:23.605Z,21.99
2022-08-18T07:35:23.482Z,22.00
2022-08-18T07:40:23.514Z,21.95
2022-08-18T07:45:23.992Z,22.00
2022-08-18T07:50:55.155Z,22.14
2022-08-18T07:55:24.247Z,22.26
2022-08-18T08:00:35.435Z,22.16
2022-08-18T08:05:24.136Z,22.46
2022-08-18T08:10:23.081Z,22.76
2022-08-18T08:15:27.189Z,22.51
2022-08-18T08:20:22.974Z,22.53
2022-08-18T08:25:45.279Z,22.63
2022-08-18T08:30:23.873Z,22.51
2022-08-18T08:35:50.159Z,22.54
2022-08-18T08:40:23.829Z,22.43
2022-08-18T08:45:22.698Z,22.83
2022-08-18T08:50:22.644Z,22.96
2022-08-18T08:55:22.587Z,22.93
2022-08-18T09:00:22.550Z,23.06
2022-08-18T09:05:22.478Z,23.23
2022-08-18T09:10:22.421Z,23.17
2022-08-18T09:15:22.379Z,24.08
2022-08-18T09:20:22.350Z,25.24
2022-08-18T09:25:22.247Z,25.37
2022-08-18T09:30:22.198Z,25.62
2022-08-18T09:35:23.069Z,25.36
2022-08-18T09:40:38.644Z,25.31
2022-08-18T09:45:23.042Z,25.82
2022-08-18T09:50:27.255Z,26.89
2022-08-18T09:55:22.938Z,27.98
2022-08-18T10:00:24.228Z,28.30
2022-08-18T10:05:22.415Z,27.55
2022-08-18T10:10:59.339Z,26.67
2022-08-18T10:15:33.082Z,26.31
2022-08-18T10:21:33.518Z,26.18
2022-08-18T10:26:33.162Z,27.28
2022-08-18T10:31:33.109Z,27.24
2022-08-18T10:36:33.061Z,26.88
2022-08-18T10:41:33.002Z,26.82
2022-08-18T10:46:35.006Z,26.73
2022-08-18T10:51:58.040Z,26.36
2022-08-18T10:56:33.848Z,26.64
2022-08-18T11:01:33.011Z,26.65
2022-08-18T11:06:32.749Z,27.22
2022-08-18T11:11:37.235Z,28.04
2022-08-18T11:16:33.635Z,29.43
2022-08-18T11:21:32.582Z,28.92
2022-08-18T11:26:32.525Z,28.36
2022-08-18T11:31:32.464Z,28.42
2022-08-18T11:36:32.418Z,27.49
2022-08-18T11:46:33.327Z,26.15
2022-08-18T11:51:32.653Z,26.70
2022-08-18T12:01:40.887Z,27.81
2022-08-18T12:06:33.100Z,28.41
2022-08-18T12:11:32.041Z,27.78
2022-08-18T12:16:31.994Z,27.47
2022-08-18T12:21:31.941Z,27.79
2022-08-18T12:26:38.982Z,28.01
2022-08-18T12:31:47.570Z,28.45
2022-08-18T12:36:32.776Z,28.44
2022-08-18T12:41:31.724Z,28.60
2022-08-18T12:46:31.671Z,27.93
2022-08-18T12:51:31.621Z,28.25
2022-08-18T12:56:31.572Z,28.50
2022-08-18T13:01:31.649Z,27.91
2022-08-18T13:06:31.458Z,28.06
2022-08-18T13:11:31.404Z,27.61
2022-08-18T13:16:54.165Z,27.62
2022-08-18T13:21:40.895Z,27.62
2022-08-18T13:26:32.230Z,27.86
2022-08-18T13:31:32.781Z,27.96
2022-08-18T13:36:31.144Z,28.40
2022-08-18T13:41:31.088Z,27.87
2022-08-18T13:46:31.475Z,28.37
2022-08-18T13:51:30.984Z,27.94
2022-08-18T13:56:31.638Z,27.85
2022-08-18T14:01:45.101Z,27.85
2022-08-18T14:06:31.809Z,27.90
2022-08-18T14:11:32.806Z,27.86
2022-08-18T14:16:30.813Z,28.13
2022-08-18T14:21:30.644Z,28.05
2022-08-18T14:26:30.591Z,27.96
2022-08-18T14:31:30.533Z,28.14
2022-08-18T14:36:30.593Z,28.53
2022-08-18T14:41:30.696Z,27.48
2022-08-18T14:46:32.694Z,27.17
2022-08-18T14:51:30.299Z,26.85
2022-08-18T14:56:33.398Z,27.20
2022-08-18T15:01:34.902Z,27.88
2022-08-18T15:06:30.129Z,28.09
2022-08-18T15:11:31.901Z,28.51
2022-08-18T15:16:32.260Z,28.37
2022-08-18T15:21:38.526Z,28.02
2022-08-18T15:26:29.911Z,28.06
2022-08-18T15:36:30.939Z,27.75
2022-08-18T15:41:29.763Z,27.31
2022-08-18T15:46:29.710Z,27.32
2022-08-18T15:51:35.351Z,27.75
2022-08-18T15:56:30.602Z,27.82
2022-08-18T16:01:30.423Z,27.84
2022-08-18T16:06:32.288Z,27.42
2022-08-18T16:11:30.020Z,27.99
2022-08-18T16:16:35.683Z,27.63
2022-08-18T16:21:30.350Z,27.24
2022-08-18T16:26:29.294Z,27.14
2022-08-18T16:31:29.255Z,27.04
2022-08-18T16:36:29.184Z,27.17
2022-08-18T16:41:29.130Z,27.13
2022-08-18T16:46:29.078Z,27.14
2022-08-18T16:51:29.029Z,26.95
2022-08-18T16:56:28.967Z,27.00
2022-08-18T17:01:33.703Z,27.11
2022-08-18T17:06:29.885Z,26.95
2022-08-18T17:11:28.834Z,26.65
2022-08-18T17:16:28.751Z,26.59
2022-08-18T17:21:28.731Z,26.67
2022-08-18T17:26:28.647Z,26.67
2022-08-18T17:31:28.596Z,26.45
2022-08-18T17:36:28.537Z,26.37
2022-08-18T17:41:28.503Z,26.24
2022-08-18T17:46:28.422Z,26.05
2022-08-18T17:51:28.377Z,25.76
2022-08-18T17:56:35.136Z,25.77
2022-08-18T18:01:28.286Z,25.65
2022-08-18T18:06:28.217Z,25.49
2022-08-18T18:11:28.162Z,25.38
2022-08-18T18:16:28.108Z,25.37
2022-08-18T18:21:55.358Z,25.16
2022-08-18T18:26:29.008Z,24.99
2022-08-18T18:31:28.012Z,24.79
2022-08-18T18:36:27.892Z,24.56
2022-08-18T18:41:27.852Z,24.31
2022-08-18T18:46:27.770Z,24.17
2022-08-18T18:51:33.704Z,24.00
2022-08-18T18:56:28.677Z,23.82
2022-08-18T19:01:27.622Z,23.70
2022-08-18T19:06:27.566Z,23.52
2022-08-18T19:11:27.539Z,23.37
2022-08-18T19:16:27.458Z,23.22
2022-08-18T19:22:04.135Z,23.19
2022-08-18T19:26:28.358Z,23.17
2022-08-18T19:31:27.352Z,23.22
2022-08-18T19:36:27.241Z,23.42
2022-08-18T19:41:30.777Z,23.58
2022-08-18T19:46:27.116Z,23.59
2022-08-18T19:51:27.072Z,23.62
2022-08-18T19:56:27.020Z,23.52
2022-08-18T20:01:26.990Z,23.44
2022-08-18T20:06:34.662Z,23.22
2022-08-18T20:11:41.722Z,23.28
2022-08-18T20:16:34.556Z,23.31
2022-08-18T20:21:27.741Z,23.31
2022-08-18T20:26:26.709Z,23.29
2022-08-18T20:31:26.629Z,23.43
2022-08-18T20:36:26.573Z,23.64
2022-08-18T20:41:26.525Z,23.71
2022-08-18T20:46:26.496Z,23.79
2022-08-18T20:51:26.398Z,23.80
2022-08-18T20:56:32.055Z,23.75
2022-08-18T21:01:27.398Z,23.57
2022-08-18T21:06:26.246Z,23.45
2022-08-18T21:11:31.852Z,23.30
2022-08-18T21:16:37.720Z,23.07
2022-08-18T21:21:27.442Z,22.89
2022-08-18T21:26:26.026Z,22.97
2022-08-18T21:31:42.880Z,22.79
2022-08-18T21:36:26.913Z,22.40
2022-08-18T21:41:25.863Z,22.33
2022-08-18T21:46:25.808Z,22.21
2022-08-18T21:51:25.742Z,22.13
2022-08-18T21:56:25.694Z,22.36
2022-08-18T22:01:25.721Z,22.52
2022-08-18T22:06:25.580Z,22.73
2022-08-18T22:11:59.713Z,22.89
2022-08-18T22:16:26.469Z,23.02
2022-08-18T22:21:32.650Z,23.09
2022-08-18T22:26:25.357Z,23.10
2022-08-18T22:31:25.304Z,23.05
2022-08-18T22:36:25.261Z,22.97
2022-08-18T22:41:25.182Z,23.06
2022-08-18T22:46:25.251Z,22.82
2022-08-18T22:51:25.092Z,22.66
2022-08-18T22:56:34.467Z,22.59
2022-08-18T23:01:24.971Z,22.35
2022-08-18T23:06:24.925Z,22.04
2022-08-18T23:11:24.861Z,21.88
2022-08-18T23:16:31.128Z,21.73
2022-08-18T23:21:35.455Z,21.62
2022-08-18T23:26:25.700Z,21.50
